<?xml version='1.0' encoding='UTF-8'?>
<gpx xmlns="http://www.topografix.com/GPX/1/1" creator="www.balnam.be" version="1.1" xmlns:xsi="http://www.w3.org/2001/XMLSchema-instance" xsi:schemaLocation="http://www.topografix.com/GPX/1/1 http://www.topografix.com/GPX/1/1/gpx.xsd">
<trk>
<name>xnsms4</name>
<cmt>v</cmt>
<desc>Masbourg Chemin n°4 Route d'Ambly / Rue des Roches / Rue de Mormont</desc>
<link href="https://chemins.be/masbourg/chemin/4"/><trkseg>
<trkpt lat="50.125689" lon="5.316581"><time>2026-05-04T17:58:44Z</time></trkpt>
<trkpt lat="50.124841" lon="5.317543"><time>2026-05-04T18:08:44Z</time></trkpt>
<trkpt lat="50.123807" lon="5.317594"><time>2026-05-04T18:18:44Z</time></trkpt>
</trkseg></trk>
<trk>
<name>xnsms4</name>
<cmt>r</cmt>
<desc>Masbourg Chemin n°4 Route d'Ambly / Rue des Roches / Rue de Mormont</desc>
<link href="https://chemins.be/masbourg/chemin/4"/><trkseg>
<trkpt lat="50.123807" lon="5.317594"><time>2026-05-04T18:18:44Z</time></trkpt>
<trkpt lat="50.122893" lon="5.317957"><time>2026-05-04T18:28:44Z</time></trkpt>
<trkpt lat="50.122662" lon="5.318049"><time>2026-05-04T18:38:44Z</time></trkpt>
<trkpt lat="50.119866" lon="5.315843"><time>2026-05-04T18:48:44Z</time></trkpt>
<trkpt lat="50.118854" lon="5.314315"><time>2026-05-04T18:58:44Z</time></trkpt>
<trkpt lat="50.116641" lon="5.312762"><time>2026-05-04T19:08:44Z</time></trkpt>
<trkpt lat="50.115007" lon="5.312667"><time>2026-05-04T19:18:44Z</time></trkpt>
<trkpt lat="50.113967" lon="5.313019"><time>2026-05-04T19:28:44Z</time></trkpt>
<trkpt lat="50.113439" lon="5.313819"><time>2026-05-04T19:38:44Z</time></trkpt>
<trkpt lat="50.113059" lon="5.313665"><time>2026-05-04T19:48:44Z</time></trkpt>
<trkpt lat="50.112993" lon="5.313515"><time>2026-05-04T19:58:44Z</time></trkpt>
</trkseg></trk>
<trk>
<name>xnsms4</name>
<cmt>v</cmt>
<desc>Masbourg Chemin n°4 Route d'Ambly / Rue des Roches / Rue de Mormont</desc>
<link href="https://chemins.be/masbourg/chemin/4"/><trkseg>
<trkpt lat="50.112993" lon="5.313515"><time>2026-05-04T19:58:44Z</time></trkpt>
<trkpt lat="50.112758" lon="5.313467"><time>2026-05-04T20:08:44Z</time></trkpt>
<trkpt lat="50.112764" lon="5.313121"><time>2026-05-04T20:18:44Z</time></trkpt>
<trkpt lat="50.112577" lon="5.312914"><time>2026-05-04T20:28:44Z</time></trkpt>
<trkpt lat="50.112041" lon="5.312815"><time>2026-05-04T20:38:44Z</time></trkpt>
<trkpt lat="50.111912" lon="5.312596"><time>2026-05-04T20:48:44Z</time></trkpt>
</trkseg></trk>
<trk>
<name>xnsms4</name>
<cmt>r</cmt>
<desc>Masbourg Chemin n°4 Route d'Ambly / Rue des Roches / Rue de Mormont</desc>
<link href="https://chemins.be/masbourg/chemin/4"/><trkseg>
<trkpt lat="50.111912" lon="5.312596"><time>2026-05-04T20:48:44Z</time></trkpt>
<trkpt lat="50.110888" lon="5.312209"><time>2026-05-04T20:58:44Z</time></trkpt>
<trkpt lat="50.109985" lon="5.310836"><time>2026-05-04T21:08:44Z</time></trkpt>
<trkpt lat="50.108950" lon="5.310201"><time>2026-05-04T21:18:44Z</time></trkpt>
</trkseg></trk>
<trk>
<name>xnsms4</name>
<cmt>s</cmt>
<desc>Masbourg Chemin n°4 Route d'Ambly / Rue des Roches / Rue de Mormont</desc>
<link href="https://chemins.be/masbourg/chemin/4"/><trkseg>
<trkpt lat="50.108950" lon="5.310201"><time>2026-05-04T21:18:44Z</time></trkpt>
<trkpt lat="50.108748" lon="5.311080"><time>2026-05-04T21:28:44Z</time></trkpt>
<trkpt lat="50.107328" lon="5.311698"><time>2026-05-04T21:38:44Z</time></trkpt>
</trkseg></trk>
<trk>
<name>xnsms4</name>
<cmt>v</cmt>
<desc>Masbourg Chemin n°4 Route d'Ambly / Rue des Roches / Rue de Mormont</desc>
<link href="https://chemins.be/masbourg/chemin/4"/><trkseg>
<trkpt lat="50.107328" lon="5.311698"><time>2026-05-04T21:38:44Z</time></trkpt>
<trkpt lat="50.105451" lon="5.313131"><time>2026-05-04T21:48:44Z</time></trkpt>
<trkpt lat="50.104270" lon="5.313190"><time>2026-05-04T21:58:44Z</time></trkpt>
<trkpt lat="50.101460" lon="5.313902"><time>2026-05-04T22:08:44Z</time></trkpt>
</trkseg></trk>
<trk>
<name>xnsms4</name>
<cmt>r</cmt>
<desc>Masbourg Chemin n°4 Route d'Ambly / Rue des Roches / Rue de Mormont</desc>
<link href="https://chemins.be/masbourg/chemin/4"/><trkseg>
<trkpt lat="50.101460" lon="5.313902"><time>2026-05-04T22:08:44Z</time></trkpt>
<trkpt lat="50.099418" lon="5.313553"><time>2026-05-04T22:18:44Z</time></trkpt>
<trkpt lat="50.098484" lon="5.313317"><time>2026-05-04T22:28:44Z</time></trkpt>
<trkpt lat="50.097015" lon="5.313325"><time>2026-05-04T22:38:44Z</time></trkpt>
</trkseg></trk>
<trk>
<name>xnsms4</name>
<cmt>v</cmt>
<desc>Masbourg Chemin n°4 Route d'Ambly / Rue des Roches / Rue de Mormont</desc>
<link href="https://chemins.be/masbourg/chemin/4"/><trkseg>
<trkpt lat="50.097015" lon="5.313325"><time>2026-05-04T22:38:44Z</time></trkpt>
<trkpt lat="50.096220" lon="5.315081"><time>2026-05-04T22:48:44Z</time></trkpt>
<trkpt lat="50.095352" lon="5.318106"><time>2026-05-04T22:58:44Z</time></trkpt>
<trkpt lat="50.094625" lon="5.318978"><time>2026-05-04T23:08:44Z</time></trkpt>
<trkpt lat="50.090526" lon="5.321410"><time>2026-05-04T23:18:44Z</time></trkpt>
<trkpt lat="50.089526" lon="5.321627"><time>2026-05-04T23:28:44Z</time></trkpt>
<trkpt lat="50.089009" lon="5.322211"><time>2026-05-04T23:38:44Z</time></trkpt>
</trkseg>
</trk>
</gpx>